Terminal Aerodrome Forecast
Issued by NWS Albuquerque, NM

Home | Current Version | Previous Version | Text Only | Print | Product List | Glossary On
Versions: 1 2 3 4 5 6 7 8 9 10 11 12 13 14 15 16 17 18 19 20 21 22 23
000
FTUS45 KABQ 270500
TAFABQ
TAF
KABQ 270539Z 2706/2806 VRB06KT P6SM VCSH BKN035 OVC060
     FM270800 08011KT P6SM VCSH BKN040 OVC060
     FM271000 07010KT P6SM BKN040 OVC060
     FM271500 05010KT P6SM SCT050 BKN080
     FM272200 08012KT P6SM VCTS BKN050CB
     FM280100 08013G23KT P6SM OVC060=

USA.gov is the U.S. government's official web portal to all federal, state and local government web resources and services.